createdAt,value
2022-12-12T00:01:33.086Z,9.13
2022-12-12T00:04:01.898Z,6.73
2022-12-12T00:06:31.000Z,7.90
2022-12-12T00:08:59.436Z,9.33
2022-12-12T00:11:28.728Z,7.93
2022-12-12T00:13:57.514Z,10.17
2022-12-12T00:16:26.725Z,8.10
2022-12-12T00:18:55.883Z,10.87
2022-12-12T00:21:26.973Z,11.20
2022-12-12T00:23:56.403Z,8.07
2022-12-12T00:26:34.053Z,8.27
2022-12-12T00:29:03.488Z,8.17
2022-12-12T00:31:31.984Z,9.63
2022-12-12T00:34:00.746Z,8.50
2022-12-12T00:36:31.244Z,8.00
2022-12-12T00:39:00.589Z,8.90
2022-12-12T00:41:29.309Z,10.00
2022-12-12T00:43:57.856Z,9.63
2022-12-12T00:46:27.430Z,11.40
2022-12-12T00:48:58.136Z,12.00
2022-12-12T00:51:28.322Z,16.23
2022-12-12T00:53:57.727Z,12.67
2022-12-12T00:56:28.253Z,12.67
2022-12-12T00:58:56.800Z,10.27
2022-12-12T01:01:29.178Z,10.30
2022-12-12T01:03:58.133Z,12.63
2022-12-12T01:06:27.263Z,10.90
2022-12-12T01:08:56.121Z,8.40
2022-12-12T01:11:25.465Z,9.30
2022-12-12T01:13:55.998Z,10.10
2022-12-12T01:16:25.243Z,11.50
2022-12-12T01:18:53.737Z,10.07
2022-12-12T01:21:22.667Z,10.03
2022-12-12T01:23:51.639Z,11.17
2022-12-12T01:26:24.533Z,9.80
2022-12-12T01:28:53.852Z,9.90
2022-12-12T01:31:22.597Z,10.53
2022-12-12T01:33:51.557Z,9.67
2022-12-12T01:36:22.271Z,10.43
2022-12-12T01:38:52.776Z,9.43
2022-12-12T01:41:22.486Z,11.77
2022-12-12T01:43:51.340Z,11.60
2022-12-12T01:46:43.188Z,12.77
2022-12-12T01:49:11.603Z,13.10
2022-12-12T01:51:41.289Z,13.60
2022-12-12T01:54:15.733Z,13.13
2022-12-12T01:56:46.808Z,11.87
2022-12-12T01:59:18.739Z,10.77
2022-12-12T02:01:47.335Z,11.60
2022-12-12T02:04:16.616Z,10.60
2022-12-12T02:06:46.808Z,10.70
2022-12-12T02:09:17.041Z,10.67
2022-12-12T02:11:49.530Z,16.40
2022-12-12T02:14:25.238Z,11.67
2022-12-12T02:17:05.937Z,14.80
2022-12-12T02:20:11.332Z,15.20
2022-12-12T02:23:09.796Z,16.27
2022-12-12T02:25:44.320Z,21.77
2022-12-12T02:28:45.105Z,14.37
2022-12-12T02:31:31.975Z,17.37
2022-12-12T02:34:03.427Z,16.23
2022-12-12T02:36:54.594Z,12.63
2022-12-12T02:40:10.943Z,13.90
2022-12-12T02:43:01.107Z,13.37
2022-12-12T02:45:46.509Z,12.93
2022-12-12T02:49:03.613Z,14.47
2022-12-12T02:51:34.329Z,16.93
2022-12-12T02:54:04.808Z,16.97
2022-12-12T02:56:48.469Z,14.20
2022-12-12T02:59:48.759Z,14.80
2022-12-12T03:02:38.580Z,19.30
2022-12-12T03:05:43.484Z,19.20
2022-12-12T03:08:25.503Z,15.83
2022-12-12T03:11:05.434Z,19.67
2022-12-12T03:14:00.466Z,19.23
2022-12-12T03:16:33.573Z,17.30
2022-12-12T03:19:14.421Z,15.53
2022-12-12T03:21:54.571Z,15.93
2022-12-12T03:24:28.947Z,20.70
2022-12-12T03:27:11.909Z,23.13
2022-12-12T03:29:49.414Z,27.77
2022-12-12T03:32:25.335Z,26.53
2022-12-12T03:35:07.218Z,19.27
2022-12-12T03:37:40.902Z,16.40
2022-12-12T03:40:20.446Z,15.80
2022-12-12T03:43:06.359Z,19.77
2022-12-12T03:45:59.392Z,15.57
2022-12-12T03:48:36.238Z,16.40
2022-12-12T03:51:19.742Z,15.83
2022-12-12T03:54:06.266Z,17.07
2022-12-12T03:56:52.243Z,22.83
2022-12-12T03:59:28.095Z,18.33
2022-12-12T04:02:09.139Z,16.90
2022-12-12T04:04:55.649Z,18.10
2022-12-12T04:07:38.638Z,19.27
2022-12-12T04:10:26.495Z,15.10
2022-12-12T04:13:36.646Z,13.87
2022-12-12T04:16:17.909Z,17.47
2022-12-12T04:18:49.327Z,18.70
2022-12-12T04:21:45.927Z,15.50
2022-12-12T04:24:31.604Z,15.30
2022-12-12T04:27:08.989Z,15.77
2022-12-12T04:29:42.776Z,17.00
2022-12-12T04:32:29.594Z,15.07
2022-12-12T04:35:13.602Z,15.77
2022-12-12T04:37:52.150Z,17.70
2022-12-12T04:40:40.300Z,17.03
2022-12-12T04:43:19.480Z,15.60
2022-12-12T04:45:56.101Z,18.47
2022-12-12T04:48:53.005Z,21.50
2022-12-12T04:51:44.191Z,17.73
2022-12-12T04:54:36.170Z,16.90
2022-12-12T04:57:08.772Z,16.60
2022-12-12T04:59:37.741Z,17.43
2022-12-12T05:02:16.721Z,19.37
2022-12-12T05:05:19.251Z,29.50
2022-12-12T05:07:57.139Z,20.07
2022-12-12T05:10:26.020Z,17.73
2022-12-12T05:12:59.220Z,18.60
2022-12-12T05:15:29.991Z,16.27
2022-12-12T05:18:03.991Z,17.43
2022-12-12T05:20:34.569Z,15.17
2022-12-12T05:23:03.009Z,17.57
2022-12-12T05:25:31.510Z,13.90
2022-12-12T05:27:59.949Z,18.23
2022-12-12T05:30:28.448Z,19.57
2022-12-12T05:32:56.855Z,15.03
2022-12-12T05:35:25.807Z,14.90
2022-12-12T05:37:54.291Z,15.50
2022-12-12T05:40:23.876Z,17.90
2022-12-12T05:42:52.361Z,15.10
2022-12-12T05:45:20.924Z,17.80
2022-12-12T05:47:49.535Z,18.03
2022-12-12T05:50:18.106Z,18.17
2022-12-12T05:52:46.513Z,15.33
2022-12-12T05:55:15.050Z,16.70
2022-12-12T05:57:43.684Z,19.40
2022-12-12T06:00:12.467Z,14.00
2022-12-12T06:02:40.982Z,14.70
2022-12-12T06:05:09.968Z,14.93
2022-12-12T06:07:38.509Z,13.07
2022-12-12T06:10:07.541Z,14.53
2022-12-12T06:12:36.065Z,15.07
2022-12-12T06:15:04.598Z,14.17
2022-12-12T06:17:33.962Z,13.70
2022-12-12T06:20:02.963Z,15.90
2022-12-12T06:22:31.459Z,18.17
2022-12-12T06:24:59.853Z,18.20
2022-12-12T06:27:28.284Z,18.43
2022-12-12T06:29:56.817Z,16.63
2022-12-12T06:32:25.207Z,14.93
2022-12-12T06:34:53.881Z,13.87
2022-12-12T06:37:22.502Z,18.20
2022-12-12T06:39:50.997Z,17.37
2022-12-12T06:42:19.442Z,14.80
2022-12-12T06:44:47.833Z,13.90
2022-12-12T06:47:16.251Z,12.27
2022-12-12T06:49:44.700Z,12.60
2022-12-12T06:52:13.593Z,15.37
2022-12-12T06:54:42.087Z,14.23
2022-12-12T06:57:10.818Z,13.10
2022-12-12T06:59:39.405Z,12.87
2022-12-12T07:02:08.080Z,12.73
2022-12-12T07:04:36.491Z,12.80
2022-12-12T07:07:04.915Z,13.97
2022-12-12T07:09:33.371Z,16.27
2022-12-12T07:12:01.808Z,15.43
2022-12-12T07:14:30.171Z,15.80
2022-12-12T07:16:58.832Z,13.10
2022-12-12T07:19:27.319Z,18.37
2022-12-12T07:21:55.707Z,16.53
2022-12-12T07:24:24.077Z,17.07
2022-12-12T07:26:52.508Z,14.53
2022-12-12T07:29:20.916Z,18.23
2022-12-12T07:31:49.373Z,15.17
2022-12-12T07:34:17.812Z,14.83
2022-12-12T07:36:46.257Z,13.67
2022-12-12T07:39:20.415Z,13.20
2022-12-12T07:41:49.435Z,15.00
2022-12-12T07:44:18.164Z,15.70
2022-12-12T07:46:46.637Z,16.03
2022-12-12T07:49:15.312Z,13.23
2022-12-12T07:51:48.738Z,13.00
2022-12-12T07:54:17.941Z,16.00
2022-12-12T07:56:46.493Z,12.40
2022-12-12T07:59:14.872Z,16.00
2022-12-12T08:01:43.351Z,18.00
2022-12-12T08:04:11.795Z,15.00
2022-12-12T08:06:40.166Z,12.23
2022-12-12T08:09:08.605Z,15.50
2022-12-12T08:11:38.902Z,13.57
2022-12-12T08:14:13.134Z,15.80
2022-12-12T08:16:41.961Z,17.40
2022-12-12T08:19:10.417Z,13.57
2022-12-12T08:21:38.820Z,12.50
2022-12-12T08:24:07.510Z,12.57
2022-12-12T08:26:36.516Z,13.20
2022-12-12T08:29:05.187Z,17.73
2022-12-12T08:31:33.913Z,16.10
2022-12-12T08:34:03.199Z,12.50
2022-12-12T08:36:33.682Z,11.70
2022-12-12T08:39:13.631Z,13.93
2022-12-12T08:41:44.801Z,12.10
2022-12-12T08:44:14.519Z,11.10
2022-12-12T08:46:43.538Z,9.40
2022-12-12T08:49:12.763Z,10.70
2022-12-12T08:51:44.725Z,9.17
2022-12-12T08:54:14.961Z,8.33
2022-12-12T08:56:43.430Z,6.80
2022-12-12T08:59:12.098Z,7.40
2022-12-12T09:01:41.442Z,7.07
2022-12-12T09:04:10.021Z,5.63
2022-12-12T09:06:38.653Z,7.60
2022-12-12T09:09:07.095Z,8.00
2022-12-12T09:11:35.486Z,5.60
2022-12-12T09:14:04.236Z,6.27
2022-12-12T09:16:32.926Z,7.17
2022-12-12T09:19:01.423Z,7.13
2022-12-12T09:21:29.913Z,6.90
2022-12-12T09:23:58.599Z,6.17
2022-12-12T09:26:27.046Z,8.53
2022-12-12T09:28:55.599Z,6.07
2022-12-12T09:31:24.321Z,7.57
2022-12-12T09:33:52.882Z,8.80
2022-12-12T09:36:21.862Z,6.70
2022-12-12T09:38:50.296Z,5.17
2022-12-12T09:41:27.778Z,7.70
2022-12-12T09:43:59.609Z,7.63
2022-12-12T09:46:54.099Z,6.60
2022-12-12T09:49:49.035Z,6.40
2022-12-12T09:52:38.126Z,6.60
2022-12-12T09:55:35.497Z,6.50
2022-12-12T09:58:39.743Z,7.70
2022-12-12T10:01:49.714Z,7.33
2022-12-12T10:04:38.593Z,7.10
2022-12-12T10:07:30.414Z,8.00
2022-12-12T10:10:04.718Z,6.07
2022-12-12T10:12:34.363Z,6.63
2022-12-12T10:15:20.268Z,6.80
2022-12-12T10:17:49.682Z,7.77
2022-12-12T10:20:27.383Z,6.60
2022-12-12T10:23:20.489Z,8.63
2022-12-12T10:25:57.583Z,7.50
2022-12-12T10:28:28.273Z,6.43
2022-12-12T10:31:04.116Z,7.60
2022-12-12T10:33:35.398Z,6.40
2022-12-12T10:36:29.417Z,6.50
2022-12-12T10:39:27.226Z,6.13
2022-12-12T10:42:18.298Z,6.20
2022-12-12T10:45:07.285Z,8.33
2022-12-12T10:47:36.214Z,7.60
2022-12-12T10:50:26.155Z,9.40
2022-12-12T10:52:54.561Z,10.87
2022-12-12T10:55:36.250Z,12.00
2022-12-12T10:58:06.591Z,12.67
2022-12-12T11:00:43.340Z,8.80
2022-12-12T11:03:28.916Z,7.97
2022-12-12T11:05:58.697Z,10.17
2022-12-12T11:08:31.035Z,6.87
2022-12-12T11:11:21.929Z,9.07
2022-12-12T11:13:54.850Z,10.23
2022-12-12T11:16:31.495Z,7.23
2022-12-12T11:19:17.192Z,9.23
2022-12-12T11:21:47.225Z,11.10
2022-12-12T11:24:21.230Z,7.00
2022-12-12T11:27:07.642Z,7.20
2022-12-12T11:29:44.176Z,7.97
2022-12-12T11:32:18.655Z,8.60
2022-12-12T11:34:59.421Z,7.50
2022-12-12T11:37:37.886Z,7.53
2022-12-12T11:40:20.027Z,8.60
2022-12-12T11:42:48.521Z,7.30
2022-12-12T11:45:17.265Z,10.67
2022-12-12T11:47:47.619Z,8.50
2022-12-12T11:50:21.836Z,8.67
2022-12-12T11:52:52.985Z,7.00
2022-12-12T11:56:06.013Z,6.60
2022-12-12T11:58:52.313Z,5.20
2022-12-12T12:01:23.296Z,5.70
2022-12-12T12:04:13.645Z,6.67
2022-12-12T12:06:42.074Z,5.37
2022-12-12T12:09:32.349Z,6.87
2022-12-12T12:12:20.834Z,5.00
2022-12-12T12:15:08.465Z,5.70
2022-12-12T12:17:56.169Z,6.30
2022-12-12T12:20:47.330Z,5.60
2022-12-12T12:23:41.961Z,7.60
2022-12-12T12:26:50.011Z,6.20
2022-12-12T12:29:47.623Z,5.90
2022-12-12T12:32:34.485Z,6.20
2022-12-12T12:35:15.811Z,6.10
2022-12-12T12:38:26.456Z,5.50
2022-12-12T12:41:09.935Z,5.60
2022-12-12T12:43:59.306Z,6.37
2022-12-12T12:46:58.621Z,5.60
2022-12-12T12:49:32.348Z,5.63
2022-12-12T12:52:03.971Z,5.37
2022-12-12T12:54:45.595Z,7.30
2022-12-12T12:57:19.458Z,5.90
2022-12-12T12:59:52.666Z,7.03
2022-12-12T13:02:43.996Z,6.60
2022-12-12T13:05:37.311Z,5.47
2022-12-12T13:08:36.137Z,5.80
2022-12-12T13:11:18.969Z,6.67
2022-12-12T13:13:50.684Z,5.80
2022-12-12T13:16:28.898Z,7.00
2022-12-12T13:19:14.177Z,5.73
2022-12-12T13:21:52.364Z,6.40
2022-12-12T13:24:33.842Z,5.27
2022-12-12T13:27:23.558Z,8.50
2022-12-12T13:29:55.147Z,5.40
2022-12-12T13:32:48.702Z,5.30
2022-12-12T13:35:28.288Z,5.50
2022-12-12T13:37:57.415Z,6.47
2022-12-12T13:40:32.372Z,7.40
2022-12-12T13:43:10.129Z,6.57
2022-12-12T13:45:44.301Z,5.90
2022-12-12T13:48:28.589Z,4.93
2022-12-12T13:51:35.529Z,5.80
2022-12-12T13:54:14.357Z,4.90
2022-12-12T13:56:56.736Z,5.60
2022-12-12T13:59:26.214Z,4.80
2022-12-12T14:02:13.277Z,5.57
2022-12-12T14:04:41.964Z,6.03
2022-12-12T14:07:24.005Z,6.20
2022-12-12T14:09:58.273Z,6.10
2022-12-12T14:12:31.897Z,5.00
2022-12-12T14:15:08.226Z,5.97
2022-12-12T14:17:42.508Z,5.40
2022-12-12T14:20:35.372Z,4.97
2022-12-12T14:23:22.481Z,4.97
2022-12-12T14:25:50.932Z,5.37
2022-12-12T14:28:30.648Z,5.10
2022-12-12T14:31:02.143Z,4.47
2022-12-12T14:34:11.374Z,5.00
2022-12-12T14:37:18.301Z,4.53
2022-12-12T14:40:15.752Z,4.80
2022-12-12T14:43:21.348Z,4.53
2022-12-12T14:45:41.647Z,4.37
2022-12-12T14:48:18.019Z,5.30
2022-12-12T14:51:00.666Z,5.67
2022-12-12T14:53:32.468Z,5.77
2022-12-12T14:56:09.091Z,4.80
2022-12-12T14:58:57.605Z,3.63
2022-12-12T15:01:45.912Z,4.53
2022-12-12T15:04:20.232Z,3.70
2022-12-12T15:06:55.449Z,3.77
2022-12-12T15:09:30.777Z,4.00
2022-12-12T15:12:19.979Z,3.53
2022-12-12T15:14:48.299Z,3.10
2022-12-12T15:17:22.148Z,2.97
2022-12-12T15:19:54.647Z,3.10
2022-12-12T15:22:27.775Z,3.33
2022-12-12T15:24:57.753Z,3.67
2022-12-12T15:27:34.012Z,4.10
2022-12-12T15:30:05.513Z,4.33
2022-12-12T15:32:34.005Z,3.30
2022-12-12T15:35:10.148Z,3.03
2022-12-12T15:37:40.165Z,3.93
2022-12-12T15:40:11.349Z,4.03
2022-12-12T15:42:45.859Z,4.23
2022-12-12T15:45:38.924Z,3.40
2022-12-12T15:48:08.882Z,4.23
2022-12-12T15:51:00.176Z,3.97
2022-12-12T15:53:34.770Z,4.90
2022-12-12T15:56:32.628Z,5.47
2022-12-12T15:59:27.124Z,8.23
2022-12-12T16:01:55.635Z,7.33
2022-12-12T16:04:26.940Z,9.63
2022-12-12T16:06:55.367Z,8.07
2022-12-12T16:09:26.521Z,6.73
2022-12-12T16:12:01.132Z,5.43
2022-12-12T16:14:43.104Z,5.17
2022-12-12T16:17:19.205Z,4.27
2022-12-12T16:19:59.334Z,4.43
2022-12-12T16:22:40.873Z,4.93
2022-12-12T16:25:28.919Z,5.10
2022-12-12T16:28:03.091Z,4.20
2022-12-12T16:30:31.502Z,4.67
2022-12-12T16:33:00.052Z,5.60
2022-12-12T16:35:28.454Z,4.50
2022-12-12T16:37:57.075Z,3.80
2022-12-12T16:40:25.440Z,3.47
2022-12-12T16:43:07.823Z,4.70
2022-12-12T16:45:38.314Z,5.07
2022-12-12T16:48:33.021Z,8.07
2022-12-12T16:51:07.047Z,7.40
2022-12-12T16:53:37.571Z,5.40
2022-12-12T16:56:06.197Z,5.07
2022-12-12T16:58:34.812Z,5.23
2022-12-12T17:01:03.583Z,5.10
2022-12-12T17:03:33.714Z,4.77
2022-12-12T17:06:02.317Z,4.40
2022-12-12T17:08:30.920Z,4.53
2022-12-12T17:11:09.963Z,4.10
2022-12-12T17:13:42.289Z,4.47
2022-12-12T17:16:10.803Z,4.50
2022-12-12T17:18:39.264Z,3.50
2022-12-12T17:21:08.182Z,4.27
2022-12-12T17:23:36.657Z,4.20
2022-12-12T17:26:05.394Z,4.10
2022-12-12T17:28:35.912Z,3.80
2022-12-12T17:31:09.441Z,3.40
2022-12-12T17:33:49.558Z,3.20
2022-12-12T17:36:20.002Z,3.50
2022-12-12T17:38:49.081Z,3.20
2022-12-12T17:41:17.681Z,3.67
2022-12-12T17:43:49.325Z,3.77
2022-12-12T17:46:20.822Z,3.50
2022-12-12T17:48:50.089Z,4.00
2022-12-12T17:51:21.988Z,3.40
2022-12-12T17:53:51.926Z,3.87
2022-12-12T17:56:23.857Z,3.70
2022-12-12T17:58:53.201Z,3.50
2022-12-12T18:01:24.989Z,4.20
2022-12-12T18:03:53.980Z,4.07
2022-12-12T18:06:23.937Z,4.87
2022-12-12T18:08:53.865Z,4.40
2022-12-12T18:11:25.575Z,3.17
2022-12-12T18:13:58.517Z,3.87
2022-12-12T18:16:27.923Z,4.57
2022-12-12T18:18:57.180Z,4.27
2022-12-12T18:24:22.380Z,3.70
2022-12-12T18:26:59.365Z,3.90
2022-12-12T18:29:28.403Z,3.87
2022-12-12T18:31:57.687Z,3.47
2022-12-12T18:34:26.700Z,3.00
2022-12-12T18:36:55.171Z,3.80
2022-12-12T18:39:23.569Z,3.93
2022-12-12T18:41:52.899Z,5.17
2022-12-12T18:44:21.517Z,5.47
2022-12-12T18:46:52.630Z,4.97
2022-12-12T18:49:21.163Z,3.93
2022-12-12T18:51:50.429Z,4.20
2022-12-12T18:54:19.389Z,3.80
2022-12-12T18:56:48.932Z,3.10
2022-12-12T18:59:18.257Z,3.33
2022-12-12T19:01:48.762Z,3.17
2022-12-12T19:04:22.766Z,3.00
2022-12-12T19:06:51.932Z,2.47
2022-12-12T19:09:21.168Z,2.40
2022-12-12T19:11:49.852Z,2.20
2022-12-12T19:14:18.901Z,2.20
2022-12-12T19:16:48.257Z,2.63
2022-12-12T19:19:17.000Z,2.40
2022-12-12T19:21:45.900Z,2.80
2022-12-12T19:24:14.583Z,2.27
2022-12-12T19:26:45.148Z,2.47
2022-12-12T19:29:17.035Z,2.33
2022-12-12T19:31:46.132Z,3.77
2022-12-12T19:34:16.532Z,2.30
2022-12-12T19:36:45.814Z,3.23
2022-12-12T19:39:14.718Z,3.20
2022-12-12T19:41:43.519Z,2.70
2022-12-12T19:44:13.903Z,2.43
2022-12-12T19:46:44.420Z,2.83
2022-12-12T19:49:14.535Z,2.40
2022-12-12T19:51:45.809Z,2.60
2022-12-12T19:54:17.109Z,2.40
2022-12-12T19:56:46.809Z,2.27
2022-12-12T19:59:17.629Z,2.47
2022-12-12T20:01:47.025Z,3.60
2022-12-12T20:04:18.645Z,2.30
2022-12-12T20:06:49.989Z,2.70
2022-12-12T20:09:27.564Z,2.40
2022-12-12T20:11:57.589Z,2.70
2022-12-12T20:14:28.871Z,2.63
2022-12-12T20:16:58.747Z,2.40
2022-12-12T20:19:28.251Z,3.00
2022-12-12T20:22:01.847Z,2.57
2022-12-12T20:24:33.103Z,2.10
2022-12-12T20:27:03.943Z,3.00
2022-12-12T20:29:32.838Z,2.10
2022-12-12T20:32:02.082Z,2.50
2022-12-12T20:34:30.965Z,3.30
2022-12-12T20:36:59.480Z,3.80
2022-12-12T20:39:27.932Z,3.03
2022-12-12T20:41:57.888Z,3.20
2022-12-12T20:44:29.977Z,2.80
2022-12-12T20:47:00.640Z,2.93
2022-12-12T20:49:30.317Z,3.50
2022-12-12T20:51:59.816Z,3.10
2022-12-12T20:54:31.410Z,2.97
2022-12-12T20:57:00.450Z,3.03
2022-12-12T20:59:28.874Z,3.20
2022-12-12T21:01:57.671Z,3.27
2022-12-12T21:04:26.153Z,2.67
2022-12-12T21:06:54.720Z,3.00
2022-12-12T21:09:26.680Z,2.20
2022-12-12T21:11:58.572Z,3.10
2022-12-12T21:14:28.737Z,2.77
2022-12-12T21:16:57.960Z,3.10
2022-12-12T21:19:26.384Z,3.70
2022-12-12T21:21:55.484Z,3.60
2022-12-12T21:24:23.898Z,3.47
2022-12-12T21:26:52.584Z,3.00
2022-12-12T21:29:21.073Z,3.83
2022-12-12T21:31:52.102Z,3.57
2022-12-12T21:34:24.693Z,3.60
2022-12-12T21:36:55.154Z,3.50
2022-12-12T21:39:28.296Z,3.70
2022-12-12T21:41:57.491Z,3.20
2022-12-12T21:44:26.295Z,3.70
2022-12-12T21:46:54.875Z,3.67
2022-12-12T21:49:29.245Z,3.30
2022-12-12T21:52:00.804Z,3.60
2022-12-12T21:54:30.356Z,3.53
2022-12-12T21:57:00.357Z,4.50
2022-12-12T21:59:29.314Z,3.13
2022-12-12T22:02:00.094Z,3.70
2022-12-12T22:04:29.558Z,3.80
2022-12-12T22:06:58.572Z,3.43
2022-12-12T22:09:27.595Z,3.53
2022-12-12T22:12:03.703Z,5.00
2022-12-12T22:14:34.384Z,3.10
2022-12-12T22:17:06.747Z,3.20
2022-12-12T22:19:35.131Z,4.13
2022-12-12T22:22:03.488Z,3.20
2022-12-12T22:24:32.173Z,3.33
2022-12-12T22:27:00.613Z,3.20
2022-12-12T22:29:28.978Z,2.80
2022-12-12T22:31:57.437Z,3.57
2022-12-12T22:34:26.245Z,3.30
2022-12-12T22:36:55.098Z,3.40
2022-12-12T22:39:29.029Z,3.70
2022-12-12T22:41:58.020Z,2.80
2022-12-12T22:44:27.486Z,3.13
2022-12-12T22:46:57.110Z,3.70
2022-12-12T22:49:27.162Z,3.03
2022-12-12T22:51:59.443Z,3.60
2022-12-12T22:54:28.028Z,3.30
2022-12-12T22:56:56.458Z,3.13
2022-12-12T22:59:24.973Z,3.33
2022-12-12T23:01:53.505Z,2.70
2022-12-12T23:04:22.135Z,3.13
2022-12-12T23:06:50.580Z,3.00
2022-12-12T23:09:26.835Z,2.93
2022-12-12T23:11:56.331Z,3.93
2022-12-12T23:14:27.599Z,3.30
2022-12-12T23:16:56.962Z,3.23
2022-12-12T23:19:27.000Z,3.70
2022-12-12T23:21:55.464Z,3.33
2022-12-12T23:24:24.038Z,3.47
2022-12-12T23:26:53.040Z,4.07
2022-12-12T23:29:21.754Z,3.40
2022-12-12T23:31:50.837Z,2.90
2022-12-12T23:34:24.883Z,3.60
2022-12-12T23:36:55.023Z,3.20
2022-12-12T23:39:24.483Z,3.10
2022-12-12T23:41:53.016Z,3.70
2022-12-12T23:44:23.316Z,2.93
2022-12-12T23:46:52.317Z,3.73
2022-12-12T23:49:27.594Z,3.17
2022-12-12T23:51:58.663Z,3.37
2022-12-12T23:54:33.313Z,4.00
2022-12-12T23:57:02.547Z,4.17
2022-12-12T23:59:31.308Z,4.50
